sensor_id;sensor_type;location;lat;lon;timestamp;temperature;humidity
28297;DHT22;62078;49.366;8.172;2023-09-07T18:52:05;24.30;58.90
28297;DHT22;62078;49.366;8.172;2023-09-07T18:54:31;24.20;58.90
28297;DHT22;62078;49.366;8.172;2023-09-07T18:56:57;24.10;58.90
28297;DHT22;62078;49.366;8.172;2023-09-07T18:59:22;24.20;58.90
28297;DHT22;62078;49.366;8.172;2023-09-07T19:01:48;24.20;59.10
28297;DHT22;62078;49.366;8.172;2023-09-07T19:04:14;24.20;59.00
28297;DHT22;62078;49.366;8.172;2023-09-07T19:06:39;24.20;59.00
28297;DHT22;62078;49.366;8.172;2023-09-07T19:09:06;24.20;59.00
28297;DHT22;62078;49.366;8.172;2023-09-07T19:11:33;24.20;58.90
28297;DHT22;62078;49.366;8.172;2023-09-07T19:13:58;24.20;58.90
28297;DHT22;62078;49.366;8.172;2023-09-07T19:16:24;24.20;59.00
28297;DHT22;62078;49.366;8.172;2023-09-07T19:18:50;24.20;58.90
28297;DHT22;62078;49.366;8.172;2023-09-07T19:21:16;24.20;59.00
28297;DHT22;62078;49.366;8.172;2023-09-07T19:23:43;24.20;59.00
28297;DHT22;62078;49.366;8.172;2023-09-07T19:26:26;24.20;59.00
28297;DHT22;62078;49.366;8.172;2023-09-07T19:28:52;24.20;59.10
28297;DHT22;62078;49.366;8.172;2023-09-07T19:31:18;24.20;59.10
28297;DHT22;62078;49.366;8.172;2023-09-07T19:33:47;24.20;59.10
28297;DHT22;62078;49.366;8.172;2023-09-07T19:36:12;24.20;59.10
28297;DHT22;62078;49.366;8.172;2023-09-07T19:38:38;24.20;59.10
28297;DHT22;62078;49.366;8.172;2023-09-07T19:41:04;24.20;59.10
28297;DHT22;62078;49.366;8.172;2023-09-07T19:43:29;24.20;59.70
28297;DHT22;62078;49.366;8.172;2023-09-07T19:45:55;24.20;59.10
28297;DHT22;62078;49.366;8.172;2023-09-07T19:48:21;24.20;59.20
28297;DHT22;62078;49.366;8.172;2023-09-07T19:50:46;24.10;59.10
28297;DHT22;62078;49.366;8.172;2023-09-07T19:53:12;24.10;59.10
28297;DHT22;62078;49.366;8.172;2023-09-07T19:55:38;24.10;59.10
28297;DHT22;62078;49.366;8.172;2023-09-07T19:58:03;24.10;59.10
28297;DHT22;62078;49.366;8.172;2023-09-07T20:00:29;24.10;59.00
28297;DHT22;62078;49.366;8.172;2023-09-07T20:02:55;24.10;59.10
28297;DHT22;62078;49.366;8.172;2023-09-07T20:05:22;24.10;59.00
28297;DHT22;62078;49.366;8.172;2023-09-07T20:07:49;24.10;59.00
28297;DHT22;62078;49.366;8.172;2023-09-07T20:10:16;24.20;59.10
28297;DHT22;62078;49.366;8.172;2023-09-07T20:12:42;24.10;59.10
28297;DHT22;62078;49.366;8.172;2023-09-07T20:15:08;24.10;59.10
28297;DHT22;62078;49.366;8.172;2023-09-07T20:17:34;24.10;59.10
28297;DHT22;62078;49.366;8.172;2023-09-07T20:20:00;24.10;59.00
28297;DHT22;62078;49.366;8.172;2023-09-07T20:22:26;24.10;59.00
28297;DHT22;62078;49.366;8.172;2023-09-07T20:24:54;24.10;59.00
28297;DHT22;62078;49.366;8.172;2023-09-07T20:27:24;24.10;59.00
28297;DHT22;62078;49.366;8.172;2023-09-07T20:29:50;24.10;59.00
28297;DHT22;62078;49.366;8.172;2023-09-07T20:32:16;24.10;59.50
28297;DHT22;62078;49.366;8.172;2023-09-07T20:34:42;24.10;58.90
28297;DHT22;62078;49.366;8.172;2023-09-07T20:37:08;24.10;58.90
28297;DHT22;62078;49.366;8.172;2023-09-07T20:39:34;24.10;58.90
28297;DHT22;62078;49.366;8.172;2023-09-07T20:42:00;24.10;58.80
28297;DHT22;62078;49.366;8.172;2023-09-07T20:44:26;24.10;58.90
28297;DHT22;62078;49.366;8.172;2023-09-07T20:46:52;24.10;58.90
28297;DHT22;62078;49.366;8.172;2023-09-07T20:49:19;24.10;58.90
28297;DHT22;62078;49.366;8.172;2023-09-07T20:51:45;24.10;58.80
28297;DHT22;62078;49.366;8.172;2023-09-07T20:54:11;24.10;58.80
28297;DHT22;62078;49.366;8.172;2023-09-07T20:56:37;24.10;58.80
28297;DHT22;62078;49.366;8.172;2023-09-07T20:59:03;24.10;58.70
28297;DHT22;62078;49.366;8.172;2023-09-07T21:01:29;24.00;58.60
28297;DHT22;62078;49.366;8.172;2023-09-07T21:03:55;24.00;58.60
28297;DHT22;62078;49.366;8.172;2023-09-07T21:06:20;24.00;58.70
28297;DHT22;62078;49.366;8.172;2023-09-07T21:08:46;24.00;58.60
28297;DHT22;62078;49.366;8.172;2023-09-07T21:11:13;24.10;58.70
28297;DHT22;62078;49.366;8.172;2023-09-07T21:13:39;24.00;58.50
28297;DHT22;62078;49.366;8.172;2023-09-07T21:16:04;24.00;58.50
28297;DHT22;62078;49.366;8.172;2023-09-07T21:18:30;24.00;58.40
28297;DHT22;62078;49.366;8.172;2023-09-07T21:20:56;24.00;58.50
28297;DHT22;62078;49.366;8.172;2023-09-07T21:23:23;23.90;58.40
28297;DHT22;62078;49.366;8.172;2023-09-07T21:25:49;23.90;58.30
28297;DHT22;62078;49.366;8.172;2023-09-07T21:28:15;23.90;58.40
28297;DHT22;62078;49.366;8.172;2023-09-07T21:30:41;23.90;58.50
28297;DHT22;62078;49.366;8.172;2023-09-07T21:33:06;23.90;58.20
28297;DHT22;62078;49.366;8.172;2023-09-07T21:35:32;23.90;58.20
28297;DHT22;62078;49.366;8.172;2023-09-07T21:37:58;23.90;58.20
28297;DHT22;62078;49.366;8.172;2023-09-07T21:40:25;23.90;58.30
28297;DHT22;62078;49.366;8.172;2023-09-07T21:42:51;23.90;58.30
28297;DHT22;62078;49.366;8.172;2023-09-07T21:45:17;23.90;58.20
28297;DHT22;62078;49.366;8.172;2023-09-07T21:47:43;23.90;58.20
28297;DHT22;62078;49.366;8.172;2023-09-07T21:50:09;23.90;58.30
28297;DHT22;62078;49.366;8.172;2023-09-07T21:52:35;23.90;58.10
28297;DHT22;62078;49.366;8.172;2023-09-07T21:55:01;23.90;58.10
28297;DHT22;62078;49.366;8.172;2023-09-07T21:57:27;23.90;58.10
28297;DHT22;62078;49.366;8.172;2023-09-07T21:59:53;23.90;58.10
28297;DHT22;62078;49.366;8.172;2023-09-07T22:02:22;23.90;58.10
28297;DHT22;62078;49.366;8.172;2023-09-07T22:04:49;23.90;58.70
28297;DHT22;62078;49.366;8.172;2023-09-07T22:07:16;23.90;58.00
28297;DHT22;62078;49.366;8.172;2023-09-07T22:09:42;23.80;58.10
28297;DHT22;62078;49.366;8.172;2023-09-07T22:12:08;23.80;58.00
28297;DHT22;62078;49.366;8.172;2023-09-07T22:14:33;23.80;58.00
28297;DHT22;62078;49.366;8.172;2023-09-07T22:17:00;23.80;57.90
28297;DHT22;62078;49.366;8.172;2023-09-07T22:19:26;23.80;57.90
28297;DHT22;62078;49.366;8.172;2023-09-07T22:21:52;23.80;57.80
28297;DHT22;62078;49.366;8.172;2023-09-07T22:24:18;23.80;57.90
28297;DHT22;62078;49.366;8.172;2023-09-07T22:26:44;23.80;57.80
28297;DHT22;62078;49.366;8.172;2023-09-07T22:29:10;23.80;57.80
28297;DHT22;62078;49.366;8.172;2023-09-07T22:31:37;23.80;57.70
28297;DHT22;62078;49.366;8.172;2023-09-07T22:34:03;23.80;57.70
28297;DHT22;62078;49.366;8.172;2023-09-07T22:36:28;23.80;57.60
28297;DHT22;62078;49.366;8.172;2023-09-07T22:38:54;23.80;57.60
28297;DHT22;62078;49.366;8.172;2023-09-07T22:41:21;23.80;57.60
28297;DHT22;62078;49.366;8.172;2023-09-07T22:43:50;23.80;57.50
28297;DHT22;62078;49.366;8.172;2023-09-07T22:46:16;23.80;57.50
28297;DHT22;62078;49.366;8.172;2023-09-07T22:48:41;23.70;57.50
28297;DHT22;62078;49.366;8.172;2023-09-07T22:51:07;23.80;57.40
28297;DHT22;62078;49.366;8.172;2023-09-07T22:53:34;23.70;57.40
28297;DHT22;62078;49.366;8.172;2023-09-07T22:56:01;23.70;57.40
28297;DHT22;62078;49.366;8.172;2023-09-07T22:58:27;23.70;57.40
28297;DHT22;62078;49.366;8.172;2023-09-07T23:00:53;23.70;57.40
28297;DHT22;62078;49.366;8.172;2023-09-07T23:03:19;23.70;57.40
28297;DHT22;62078;49.366;8.172;2023-09-07T23:05:46;23.70;57.50
28297;DHT22;62078;49.366;8.172;2023-09-07T23:08:13;23.70;57.50
28297;DHT22;62078;49.366;8.172;2023-09-07T23:10:39;23.70;57.50
28297;DHT22;62078;49.366;8.172;2023-09-07T23:13:05;23.70;57.40
28297;DHT22;62078;49.366;8.172;2023-09-07T23:15:34;23.70;57.40
28297;DHT22;62078;49.366;8.172;2023-09-07T23:18:00;23.70;57.30
28297;DHT22;62078;49.366;8.172;2023-09-07T23:20:26;23.70;57.40
28297;DHT22;62078;49.366;8.172;2023-09-07T23:22:52;23.70;57.50
28297;DHT22;62078;49.366;8.172;2023-09-07T23:25:18;23.70;57.40
28297;DHT22;62078;49.366;8.172;2023-09-07T23:27:44;23.70;57.40
28297;DHT22;62078;49.366;8.172;2023-09-07T23:30:10;23.70;57.30
28297;DHT22;62078;49.366;8.172;2023-09-07T23:32:39;23.70;57.30
28297;DHT22;62078;49.366;8.172;2023-09-07T23:35:06;23.70;57.30
28297;DHT22;62078;49.366;8.172;2023-09-07T23:37:35;23.70;57.40
28297;DHT22;62078;49.366;8.172;2023-09-07T23:40:01;23.70;58.00
28297;DHT22;62078;49.366;8.172;2023-09-07T23:42:32;23.70;57.40
28297;DHT22;62078;49.366;8.172;2023-09-07T23:44:57;23.70;57.40
28297;DHT22;62078;49.366;8.172;2023-09-07T23:47:23;23.60;57.50
28297;DHT22;62078;49.366;8.172;2023-09-07T23:49:49;23.60;57.40
28297;DHT22;62078;49.366;8.172;2023-09-07T23:52:14;23.60;57.40
28297;DHT22;62078;49.366;8.172;2023-09-07T23:54:41;23.60;57.40
28297;DHT22;62078;49.366;8.172;2023-09-07T23:57:06;23.60;57.50
28297;DHT22;62078;49.366;8.172;2023-09-07T23:59:32;23.60;57.50
